KLWS/LWS METAR and TAF weather

Enter ICAO airport designator
Station Type Date Time Source
KLWS METAR 2021/02/25 01:56 UTC NOAA

KLWS 250156Z 10004KT 10SM CLR 03/M03 A3051 RMK AO2 SLP347 T00281028


Station Type Date Time Source
KLWS Decoded METAR 2021/02/25 01:56 UTC NOAA

LEWISTON NEZ PERCE CO AIRPORT , ID, United States (KLWS) 46-22N 117-01W 438M
Feb 24, 2021 - 08:56 PM EST / 2021.02.25 0156 UTC
Wind: from the E (100 degrees) at 5 MPH (4 KT):0
Visibility: 10 mile(s):0
Sky conditions: clear
Temperature: 37.0 F (2.8 C)
Dew Point: 27.0 F (-2.8 C)
Relative Humidity: 66%
Pressure (altimeter): 30.51 in. Hg (1033 hPa)
ob: KLWS 250156Z 10004KT 10SM CLR 03/M03 A3051 RMK AO2 SLP347 T00281028
cycle: 2

Station Type Date Time Source
KLWS TAF 2021/02/24 18:42 UTC NOAA

TAF KLWS 241739Z 2418/2518 VRB04KT P6SM BKN040
FM250000 15004KT P6SM SCT050 SCT200
FM251200 11012KT P6SM OVC080
FM251600 15015G22KT P6SM OVC060

Example: see airport list